Time;durP1;ratioP1;P1;durP2;ratioP2;P2;SDS_P1;SDS_P2;PMS_P1;PMS_P2;Temp;Humidity;BMP_temperature;BMP_pressure;BME280_temperature;BME280_humidity;BME280_pressure;Samples;Min_cycle;Max_cycle;Signal;HPM_P1;HPM_P2
2023/07/08 00:01:19;;;;;;;5.90;2.00;;;;;;;25.72;63.57;99697.28;5023378;28;20061;-56
2023/07/08 00:03:50;;;;;;;4.90;2.10;;;;;;;25.91;64.29;99701.03;5013933;28;20509;-57
2023/07/08 00:06:24;;;;;;;3.40;1.67;;;;;;;25.98;62.42;99704.84;5023674;28;20498;-58
2023/07/08 00:08:54;;;;;;;7.43;2.40;;;;;;;25.99;62.39;99701.19;5013784;28;20347;-56
2023/07/08 00:11:25;;;;;;;7.33;2.10;;;;;;;25.98;62.88;99697.66;5023553;28;20049;-57
2023/07/08 00:13:57;;;;;;;6.70;2.53;;;;;;;26.09;62.04;99703.91;5013700;28;20045;-55
2023/07/08 00:16:27;;;;;;;8.97;2.50;;;;;;;26.11;62.06;99702.78;5024966;28;20056;-57
2023/07/08 00:18:59;;;;;;;5.77;2.63;;;;;;;26.14;61.65;99707.00;5013840;28;20189;-57
2023/07/08 00:21:29;;;;;;;4.30;2.17;;;;;;;26.24;62.56;99708.69;5024129;28;20140;-58
2023/07/08 00:24:01;;;;;;;7.27;1.90;;;;;;;26.28;60.47;99703.06;5014536;28;20067;-58
2023/07/08 00:26:33;;;;;;;5.23;2.07;;;;;;;26.31;60.94;99709.00;5024483;28;20036;-57
2023/07/08 00:29:10;;;;;;;13.77;2.40;;;;;;;26.37;61.77;99699.56;5013366;28;20049;-58
2023/07/08 00:31:40;;;;;;;6.63;2.20;;;;;;;26.42;62.13;99699.97;5013662;28;20049;-59
2023/07/08 00:34:11;;;;;;;10.43;2.30;;;;;;;26.50;62.28;99697.44;5025106;28;20033;-58
2023/07/08 00:36:41;;;;;;;7.27;1.67;;;;;;;26.54;61.48;99696.22;5017405;28;20063;-56
2023/07/08 00:39:16;;;;;;;10.07;2.00;;;;;;;26.58;60.54;99700.28;5027449;28;20439;-57
2023/07/08 00:41:47;;;;;;;5.73;1.90;;;;;;;26.64;60.08;99693.53;5009362;28;20099;-57
2023/07/08 00:44:19;;;;;;;5.10;2.10;;;;;;;26.65;61.73;99689.84;5007498;28;20045;-58
2023/07/08 00:46:59;;;;;;;6.37;2.20;;;;;;;26.74;60.61;99696.19;5014147;28;20118;-57
2023/07/08 00:49:39;;;;;;;5.13;2.00;;;;;;;26.67;60.62;99683.34;5027316;28;20079;-56
2023/07/08 00:52:24;;;;;;;6.33;2.40;;;;;;;26.92;60.94;99697.16;5008402;28;20067;-59
2023/07/08 00:54:57;;;;;;;8.10;2.40;;;;;;;26.98;61.50;99680.47;5016403;28;20057;-56
2023/07/08 00:57:31;;;;;;;6.90;2.33;;;;;;;27.06;60.71;99688.66;5026527;28;20037;-56
2023/07/08 01:00:06;;;;;;;3.93;2.23;;;;;;;27.11;60.64;99691.75;5009316;28;20489;-58
2023/07/08 01:02:47;;;;;;;6.03;2.00;;;;;;;27.19;60.01;99682.16;5021365;28;20478;-58
2023/07/08 01:05:20;;;;;;;4.97;2.13;;;;;;;26.96;60.27;99654.78;5016562;28;20460;-58
2023/07/08 01:07:57;;;;;;;5.67;2.10;;;;;;;27.15;60.08;99696.81;5016169;28;20080;-57
2023/07/08 01:10:34;;;;;;;15.13;2.77;;;;;;;27.18;60.75;99685.78;5025404;28;20045;-59
2023/07/08 01:13:07;;;;;;;13.80;2.57;;;;;;;27.27;61.38;99684.94;5011173;28;20399;-56
2023/07/08 01:15:44;;;;;;;7.73;2.17;;;;;;;27.18;61.21;99681.28;5019764;28;20045;-57
2023/07/08 01:18:17;;;;;;;6.37;2.30;;;;;;;27.27;62.09;99680.44;5024325;28;20351;-57
2023/07/08 01:20:48;;;;;;;17.20;3.10;;;;;;;27.46;61.34;99684.88;5015713;28;20045;-59
2023/07/08 01:23:20;;;;;;;7.17;2.20;;;;;;;27.58;61.34;99687.34;5026658;28;20072;-55
2023/07/08 01:25:59;;;;;;;5.60;2.50;;;;;;;27.51;60.63;99682.59;5010823;28;20944;-58
2023/07/08 01:28:31;;;;;;;4.20;2.33;;;;;;;27.22;61.83;99638.94;5020278;28;20108;-59
2023/07/08 01:31:02;;;;;;;11.87;2.23;;;;;;;27.63;61.50;99685.06;5010181;28;20055;-58
2023/07/08 01:33:34;;;;;;;18.87;3.63;;;;;;;27.66;60.21;99674.06;5020273;28;20053;-58
2023/07/08 01:36:06;;;;;;;4.33;2.80;;;;;;;27.64;60.27;99681.41;5012052;28;20176;-59
2023/07/08 01:38:40;;;;;;;5.97;2.90;;;;;;;27.72;61.43;99682.34;5021056;28;20139;-58
2023/07/08 01:41:13;;;;;;;3.80;2.60;;;;;;;27.80;60.61;99670.84;5009009;28;20460;-60
2023/07/08 01:43:44;;;;;;;8.03;2.53;;;;;;;27.84;61.07;99672.28;5010661;28;20080;-59
2023/07/08 01:46:22;;;;;;;17.60;3.03;;;;;;;27.96;62.26;99671.09;5020459;28;20043;-59
2023/07/08 01:48:58;;;;;;;9.18;2.40;;;;;;;28.01;60.90;99675.13;5010151;28;20315;-58
2023/07/08 01:51:29;;;;;;;7.07;2.60;;;;;;;27.99;60.04;99669.09;5018794;28;20049;-57
2023/07/08 01:54:01;;;;;;;5.97;2.60;;;;;;;28.03;60.73;99665.97;5010932;28;20048;-58
2023/07/08 01:56:32;;;;;;;5.90;2.53;;;;;;;28.08;60.63;99662.78;5020742;28;20080;-58
2023/07/08 01:59:02;;;;;;;6.77;2.50;;;;;;;28.22;61.12;99664.94;5008230;28;20052;-59
2023/07/08 02:01:33;;;;;;;7.57;2.50;;;;;;;28.33;60.03;99667.44;5019263;28;20048;-59
2023/07/08 02:04:03;;;;;;;9.23;2.53;;;;;;;28.34;60.22;99663.72;5009515;28;20102;-59
2023/07/08 02:06:34;;;;;;;6.97;2.37;;;;;;;28.35;59.62;99659.19;5020683;28;20790;-59
2023/07/08 02:09:06;;;;;;;12.20;3.20;;;;;;;28.30;60.31;99648.91;5008824;28;20060;-59
2023/07/08 02:11:37;;;;;;;7.27;3.17;;;;;;;28.35;60.53;99654.66;5018062;28;20049;-58
2023/07/08 02:14:08;;;;;;;5.23;2.70;;;;;;;28.49;59.51;99649.78;5020520;28;20482;-59
2023/07/08 02:16:39;;;;;;;8.33;3.20;;;;;;;28.46;59.18;99655.47;5010230;28;20100;-58
2023/07/08 02:19:10;;;;;;;4.63;2.90;;;;;;;28.43;60.68;99658.41;5019438;28;20362;-59
2023/07/08 02:21:44;;;;;;;7.23;2.83;;;;;;;28.35;59.70;99651.97;5009102;28;20051;-60
2023/07/08 02:24:16;;;;;;;8.23;2.70;;;;;;;28.43;58.15;99655.72;5019283;28;20095;-59
2023/07/08 02:26:48;;;;;;;4.53;2.80;;;;;;;28.22;56.92;99654.22;5008611;28;20048;-59
2023/07/08 02:29:19;;;;;;;5.03;2.33;;;;;;;28.06;57.68;99643.31;5016004;28;20057;-57
2023/07/08 02:31:49;;;;;;;4.40;2.70;;;;;;;28.21;57.64;99647.16;5010584;28;20357;-57
2023/07/08 02:34:20;;;;;;;3.30;2.40;;;;;;;28.26;56.40;99644.84;5021541;28;20057;-58
2023/07/08 02:36:51;;;;;;;3.63;2.30;;;;;;;28.11;55.98;99630.28;5008101;28;20454;-58
2023/07/08 02:39:23;;;;;;;4.77;2.80;;;;;;;28.10;56.70;99609.78;5018113;28;20138;-57
2023/07/08 02:41:54;;;;;;;2.80;2.20;;;;;;;28.37;56.12;99641.91;5010417;28;20049;-59
2023/07/08 02:44:26;;;;;;;6.97;3.63;;;;;;;28.26;56.60;99644.84;5020614;28;20053;-56
2023/07/08 02:46:56;;;;;;;8.30;3.03;;;;;;;28.27;54.93;99643.84;5008696;28;20738;-59
2023/07/08 02:49:27;;;;;;;7.70;3.20;;;;;;;28.24;55.75;99646.00;5019912;28;20052;-57
2023/07/08 02:51:58;;;;;;;5.93;2.60;;;;;;;28.36;55.95;99640.25;5007992;28;20065;-58
2023/07/08 02:54:30;;;;;;;6.13;2.47;;;;;;;28.46;56.18;99642.03;5017460;28;20136;-58
2023/07/08 02:57:01;;;;;;;5.70;2.53;;;;;;;28.55;56.40;99633.03;5005186;28;20148;-55
2023/07/08 02:59:32;;;;;;;4.27;2.20;;;;;;;28.64;55.02;99631.25;5019308;28;20944;-57
2023/07/08 03:02:02;;;;;;;5.03;2.13;;;;;;;28.67;54.92;99636.31;5005787;28;20048;-59
2023/07/08 03:04:33;;;;;;;7.73;2.60;;;;;;;28.50;54.39;99624.59;5017748;28;20060;-58
2023/07/08 03:07:03;;;;;;;5.97;3.10;;;;;;;28.41;53.79;99620.97;5009078;28;20052;-58
2023/07/08 03:09:36;;;;;;;5.83;2.53;;;;;;;28.25;53.86;99627.03;5020024;28;20049;-59
2023/07/08 03:12:07;;;;;;;6.53;3.00;;;;;;;28.20;54.17;99629.34;5006830;28;20061;-58
2023/07/08 03:14:38;;;;;;;5.47;2.20;;;;;;;28.22;53.19;99626.50;5013311;28;20075;-58
2023/07/08 03:17:08;;;;;;;3.90;2.50;;;;;;;28.33;54.88;99613.69;5016971;28;20043;-60
2023/07/08 03:19:39;;;;;;;2.73;2.03;;;;;;;28.56;54.90;99607.84;5005726;28;20084;-58
2023/07/08 03:22:09;;;;;;;4.53;2.30;;;;;;;28.55;52.40;99611.53;5017918;28;20115;-58
2023/07/08 03:24:45;;;;;;;6.30;2.43;;;;;;;27.86;54.86;99595.13;5006415;28;20088;-59
2023/07/08 03:27:16;;;;;;;5.07;2.77;;;;;;;28.08;54.93;99604.56;5014776;28;20575;-56
2023/07/08 03:29:47;;;;;;;7.97;2.60;;;;;;;28.26;55.72;99601.03;5009219;28;20057;-59
2023/07/08 03:32:18;;;;;;;6.07;3.37;;;;;;;28.38;53.24;99595.25;5017370;28;20049;-58
2023/07/08 03:34:48;;;;;;;8.10;2.83;;;;;;;28.15;54.44;99589.50;5003428;28;20562;-58
2023/07/08 03:37:19;;;;;;;3.97;2.13;;;;;;;28.35;55.61;99590.16;5019472;28;20056;-58
2023/07/08 03:39:51;;;;;;;8.70;2.60;;;;;;;28.52;55.04;99595.72;5007546;28;20443;-58
2023/07/08 03:42:21;;;;;;;6.60;2.27;;;;;;;28.32;52.99;99595.88;5019819;28;20071;-57
2023/07/08 03:44:52;;;;;;;7.87;2.70;;;;;;;28.04;53.07;99592.44;5009141;28;20430;-58
2023/07/08 03:47:24;;;;;;;5.23;2.80;;;;;;;27.98;53.36;99586.81;5018889;28;20053;-57
2023/07/08 03:49:54;;;;;;;6.47;2.13;;;;;;;27.78;52.09;99586.94;5009813;28;20041;-59
2023/07/08 03:52:25;;;;;;;4.07;2.60;;;;;;;27.73;55.00;99583.88;5019045;28;20167;-56
2023/07/08 03:54:57;;;;;;;4.77;2.37;;;;;;;28.00;53.92;99590.22;5007941;28;20057;-58
2023/07/08 03:57:27;;;;;;;13.07;2.60;;;;;;;28.22;53.80;99579.00;5016131;28;20664;-58
2023/07/08 03:59:58;;;;;;;4.40;1.97;;;;;;;28.48;54.46;99573.69;5007084;28;20124;-60
2023/07/08 04:02:29;;;;;;;3.13;1.83;;;;;;;28.65;53.39;99569.25;5020423;28;20067;-58
2023/07/08 04:05:00;;;;;;;4.80;1.80;;;;;;;28.76;51.53;99574.38;5007039;28;20691;-57
2023/07/08 04:07:32;;;;;;;3.47;1.90;;;;;;;28.70;51.84;99572.31;5014969;28;20140;-59
2023/07/08 04:10:06;;;;;;;5.30;2.10;;;;;;;28.59;51.41;99576.13;5009997;28;20033;-58
2023/07/08 04:12:37;;;;;;;3.83;1.80;;;;;;;28.32;52.01;99569.00;5022891;28;20033;-58
2023/07/08 04:15:11;;;;;;;8.40;2.00;;;;;;;28.14;51.84;99533.28;5023324;28;20072;-56
2023/07/08 04:17:47;;;;;;;2.47;1.60;;;;;;;28.34;51.51;99561.63;5010775;28;20067;-58
2023/07/08 04:20:20;;;;;;;4.70;1.97;;;;;;;28.13;51.36;99553.06;5028857;28;20048;-58
2023/07/08 04:22:51;;;;;;;3.70;1.83;;;;;;;28.14;52.88;99549.38;5037048;28;20044;-56
2023/07/08 04:25:25;;;;;;;2.07;1.60;;;;;;;28.48;54.30;99540.59;5047585;28;20047;-58
2023/07/08 04:27:58;;;;;;;2.10;1.90;;;;;;;28.81;53.69;99537.09;5036742;28;20073;-57
2023/07/08 04:30:31;;;;;;;3.70;1.90;;;;;;;29.05;54.09;99532.81;5040213;28;20348;-57
2023/07/08 04:33:03;;;;;;;4.63;1.90;;;;;;;29.17;53.56;99531.56;5010252;28;20049;-57
2023/07/08 04:35:34;;;;;;;2.73;1.70;;;;;;;29.21;53.14;99522.16;5022480;28;20037;-58
2023/07/08 04:38:09;;;;;;;2.77;1.40;;;;;;;29.35;53.09;99528.75;5017252;28;20375;-56
2023/07/08 04:40:42;;;;;;;6.03;1.50;;;;;;;29.50;52.64;99526.25;5017287;28;20060;-57
2023/07/08 04:43:15;;;;;;;4.57;1.80;;;;;;;29.61;52.20;99528.66;5027243;28;20048;-58
2023/07/08 04:45:50;;;;;;;2.33;1.70;;;;;;;29.68;50.57;99528.88;5017426;28;20562;-59
2023/07/08 04:48:24;;;;;;;4.47;1.90;;;;;;;29.63;51.39;99499.72;5027849;28;20041;-58
2023/07/08 04:50:57;;;;;;;6.87;1.60;;;;;;;29.47;50.35;99467.41;5010356;28;20045;-58
2023/07/08 04:53:29;;;;;;;2.67;1.20;;;;;;;29.84;48.21;99528.88;5018069;28;20541;-57
2023/07/08 04:56:03;;;;;;;7.63;3.30;;;;;;;29.87;48.54;99527.69;5001742;28;20049;-57
2023/07/08 04:58:34;;;;;;;4.07;2.00;;;;;;;29.93;48.28;99527.03;5022296;28;20059;-56
2023/07/08 05:01:06;;;;;;;4.63;1.60;;;;;;;30.01;49.37;99521.66;5016538;28;20180;-57
2023/07/08 05:03:37;;;;;;;4.60;1.50;;;;;;;29.98;47.49;99524.69;5024189;28;20122;-55
2023/07/08 05:06:09;;;;;;;2.60;1.33;;;;;;;29.52;47.78;99528.81;5024192;28;20051;-56
2023/07/08 05:08:41;;;;;;;2.90;1.50;;;;;;;29.22;48.88;99526.53;4998219;28;20049;-57
2023/07/08 05:11:16;;;;;;;3.67;1.70;;;;;;;29.39;50.52;99518.53;5007699;28;20049;-57
2023/07/08 05:13:51;;;;;;;4.57;1.40;;;;;;;29.68;50.06;99501.97;4997804;28;20144;-59
2023/07/08 05:16:25;;;;;;;13.43;2.20;;;;;;;30.03;49.90;99516.94;5007233;28;20432;-57
2023/07/08 05:18:58;;;;;;;2.93;1.10;;;;;;;30.28;49.70;99519.66;4997006;28;20054;-56
2023/07/08 05:21:35;;;;;;;5.23;1.60;;;;;;;30.34;48.70;99521.66;5006622;28;20065;-57
2023/07/08 05:24:11;;;;;;;3.58;1.50;;;;;;;30.34;48.87;99518.97;4996294;28;20483;-58
2023/07/08 05:26:47;;;;;;;4.00;1.70;;;;;;;30.44;49.47;99514.22;4996951;28;20041;-56
2023/07/08 05:29:21;;;;;;;1.97;1.50;;;;;;;30.46;48.80;99517.59;5025988;28;20123;-56
2023/07/08 05:31:54;;;;;;;2.83;1.30;;;;;;;30.45;49.11;99505.13;4998195;28;20049;-59
2023/07/08 05:34:26;;;;;;;3.23;1.60;;;;;;;30.53;49.57;99498.88;5006876;28;20136;-57
2023/07/08 05:36:58;;;;;;;7.50;3.63;;;;;;;30.40;47.18;99502.09;4996901;28;20051;-56
2023/07/08 05:39:31;;;;;;;4.17;2.30;;;;;;;30.30;48.15;99506.81;5006714;28;20400;-57
2023/07/08 05:42:06;;;;;;;4.47;1.70;;;;;;;30.13;49.68;99506.00;4996238;28;20053;-58
2023/07/08 05:44:41;;;;;;;7.63;1.90;;;;;;;30.05;49.38;99497.91;4996177;28;20053;-56
2023/07/08 05:47:14;;;;;;;8.10;1.40;;;;;;;30.14;49.10;99490.66;5006375;28;20057;-57
2023/07/08 05:49:48;;;;;;;3.27;1.20;;;;;;;30.12;48.57;99492.69;4996468;28;20054;-58
2023/07/08 05:52:21;;;;;;;5.27;1.30;;;;;;;30.07;48.50;99485.94;5006565;28;20470;-59
2023/07/08 05:54:54;;;;;;;2.93;1.70;;;;;;;30.24;49.57;99485.94;4996504;28;20060;-58
2023/07/08 05:57:29;;;;;;;4.73;1.37;;;;;;;30.41;50.02;99481.38;5006081;28;20096;-56
2023/07/08 06:00:02;;;;;;;4.07;1.60;;;;;;;30.52;49.20;99489.09;4996596;28;20520;-56
2023/07/08 06:02:34;;;;;;;3.17;1.43;;;;;;;30.55;48.51;99482.50;5006288;28;20099;-57
2023/07/08 06:05:06;;;;;;;5.37;1.67;;;;;;;30.63;47.63;99485.19;4995549;28;20414;-56
2023/07/08 06:07:38;;;;;;;3.10;1.57;;;;;;;30.65;48.38;99483.16;5012466;28;20163;-56
2023/07/08 06:10:29;;;;;;;7.93;1.60;;;;;;;30.62;47.26;99484.34;5014726;28;20041;-57
2023/07/08 06:13:03;;;;;;;5.13;2.10;;;;;;;30.12;47.37;99476.53;4927648;28;20379;-59
2023/07/08 06:15:33;;;;;;;6.67;1.83;;;;;;;29.97;48.54;99479.88;4939314;28;20058;-58
2023/07/08 06:18:04;;;;;;;7.03;1.43;;;;;;;30.01;49.38;99475.84;4931311;28;20422;-60
2023/07/08 06:20:35;;;;;;;10.33;1.53;;;;;;;30.25;49.77;99471.47;4941494;28;20047;-59
2023/07/08 06:23:06;;;;;;;12.77;1.83;;;;;;;30.42;49.47;99478.50;4931337;28;20078;-58
2023/07/08 06:25:37;;;;;;;6.10;1.70;;;;;;;30.10;47.83;99480.25;4937500;28;20039;-58
2023/07/08 06:28:09;;;;;;;3.30;1.57;;;;;;;29.95;48.74;99471.13;4940662;28;20365;-58
2023/07/08 06:30:39;;;;;;;3.17;1.40;;;;;;;29.87;50.04;99463.06;4928957;28;20053;-61
2023/07/08 06:33:11;;;;;;;7.50;1.87;;;;;;;30.07;50.21;99475.16;4937534;28;20461;-57
2023/07/08 06:35:43;;;;;;;4.80;2.10;;;;;;;29.92;48.44;99466.09;4930414;28;20050;-60
2023/07/08 06:38:14;;;;;;;7.00;2.03;;;;;;;29.98;49.80;99470.81;4940044;28;20042;-60
2023/07/08 06:40:45;;;;;;;5.20;1.73;;;;;;;29.98;48.88;99470.81;4928431;28;20626;-58
2023/07/08 06:43:17;;;;;;;7.77;1.97;;;;;;;30.12;49.85;99476.53;4937991;28;20070;-60
2023/07/08 06:45:48;;;;;;;5.97;1.70;;;;;;;30.25;49.24;99474.16;4929872;28;20051;-60
2023/07/08 06:48:18;;;;;;;6.17;1.90;;;;;;;30.32;49.59;99483.25;4939062;28;20054;-60
2023/07/08 06:50:49;;;;;;;3.87;1.80;;;;;;;30.32;48.55;99477.84;4974790;28;20148;-61
2023/07/08 06:53:20;;;;;;;19.70;6.40;;;;;;;30.28;49.14;99473.84;5000346;28;20049;-59
2023/07/08 06:55:52;;;;;;;6.33;2.40;;;;;;;30.21;49.13;99464.72;4990588;28;20152;-59
2023/07/08 06:58:24;;;;;;;10.27;2.80;;;;;;;30.27;49.21;99469.44;5001123;28;20136;-60
2023/07/08 07:00:55;;;;;;;7.23;2.17;;;;;;;30.30;49.03;99469.09;4990133;28;20049;-60
2023/07/08 07:03:26;;;;;;;5.30;1.90;;;;;;;30.28;48.73;99466.59;5000097;28;20095;-61
2023/07/08 07:05:56;;;;;;;5.53;1.60;;;;;;;30.21;48.16;99473.66;4991526;28;20055;-59
2023/07/08 07:08:27;;;;;;;6.03;1.83;;;;;;;30.23;48.29;99462.69;5018836;28;20136;-60
2023/07/08 07:10:58;;;;;;;10.23;1.73;;;;;;;30.30;48.12;99463.72;5008952;28;20066;-60
2023/07/08 07:13:30;;;;;;;5.43;1.73;;;;;;;30.07;47.82;99456.31;5019327;28;20051;-60
2023/07/08 07:16:01;;;;;;;5.53;1.97;;;;;;;30.14;49.88;99455.63;5003619;28;20046;-62
2023/07/08 07:18:32;;;;;;;5.93;2.40;;;;;;;30.12;47.96;99450.41;5018954;28;20073;-60
2023/07/08 07:21:03;;;;;;;4.37;1.80;;;;;;;29.89;47.73;99461.88;5009898;28;20436;-59
2023/07/08 07:23:36;;;;;;;8.40;2.20;;;;;;;29.82;48.82;99463.56;5015375;28;20045;-60
2023/07/08 07:26:07;;;;;;;6.90;2.27;;;;;;;29.97;49.95;99458.34;5007813;28;20045;-59
2023/07/08 07:28:39;;;;;;;7.43;1.80;;;;;;;30.02;50.05;99447.91;5016361;28;20119;-61
2023/07/08 07:31:12;;;;;;;9.27;2.33;;;;;;;30.16;50.12;99450.94;5015949;28;20049;-62
2023/07/08 07:33:43;;;;;;;10.10;2.20;;;;;;;30.13;48.97;99445.84;5011004;28;20055;-60
2023/07/08 07:36:14;;;;;;;6.00;1.93;;;;;;;30.13;49.26;99452.13;5018072;28;20063;-61
2023/07/08 07:38:45;;;;;;;10.83;2.20;;;;;;;30.04;48.83;99453.97;5006322;28;20067;-61
2023/07/08 07:41:15;;;;;;;10.77;2.30;;;;;;;30.13;49.21;99456.63;5018341;28;20467;-61
2023/07/08 07:43:48;;;;;;;16.37;3.03;;;;;;;30.21;49.65;99459.34;5009357;28;20183;-62
2023/07/08 07:46:18;;;;;;;7.83;2.47;;;;;;;30.28;49.73;99465.75;5018495;28;20148;-61
2023/07/08 07:48:49;;;;;;;3.83;2.10;;;;;;;30.22;49.46;99453.75;5009879;28;20041;-61
2023/07/08 07:51:19;;;;;;;10.83;2.43;;;;;;;30.16;49.19;99456.31;5019192;28;20083;-61
2023/07/08 07:53:50;;;;;;;6.07;2.10;;;;;;;30.07;49.61;99459.00;5010938;28;20040;-61
2023/07/08 07:56:21;;;;;;;9.63;2.70;;;;;;;30.03;49.39;99456.81;5018657;28;20061;-61
2023/07/08 07:58:56;;;;;;;5.87;2.23;;;;;;;30.03;50.01;99468.47;5007509;28;20536;-62
2023/07/08 08:01:26;;;;;;;5.70;2.33;;;;;;;29.97;48.52;99461.03;5017476;28;20045;-61
2023/07/08 08:03:57;;;;;;;7.17;2.60;;;;;;;29.94;48.98;99466.78;5006991;28;20046;-59
2023/07/08 08:06:28;;;;;;;7.47;2.23;;;;;;;29.89;48.81;99461.06;5018483;28;20123;-56
2023/07/08 08:08:59;;;;;;;6.37;2.10;;;;;;;29.92;49.85;99465.25;5010550;28;20049;-61
2023/07/08 08:11:29;;;;;;;14.40;2.03;;;;;;;29.90;49.12;99468.09;5020199;28;20085;-59
2023/07/08 08:14:03;;;;;;;10.50;2.40;;;;;;;29.87;50.35;99463.91;5009144;28;20119;-61
2023/07/08 08:16:34;;;;;;;10.43;2.57;;;;;;;29.91;51.14;99472.50;5015958;28;20057;-60
2023/07/08 08:19:04;;;;;;;11.83;2.10;;;;;;;29.82;49.78;99466.25;5006713;28;20060;-61
2023/07/08 08:21:38;;;;;;;14.20;2.70;;;;;;;29.71;51.02;99457.69;5014450;28;20107;-61
2023/07/08 08:24:08;;;;;;;12.70;3.23;;;;;;;29.76;50.94;99471.50;5017737;28;20363;-61
2023/07/08 08:26:39;;;;;;;4.50;2.20;;;;;;;29.60;50.13;99473.13;5007060;28;20147;-61
2023/07/08 08:29:11;;;;;;;4.77;2.07;;;;;;;29.53;50.51;99477.50;5018114;28;20131;-61
2023/07/08 08:31:42;;;;;;;5.20;1.63;;;;;;;29.46;51.04;99468.41;5007508;28;20770;-60
2023/07/08 08:34:12;;;;;;;7.87;2.77;;;;;;;29.39;51.11;99470.09;5021381;28;20126;-61
2023/07/08 08:36:44;;;;;;;7.53;2.60;;;;;;;29.42;52.03;99472.44;5007273;28;20049;-62
2023/07/08 08:39:15;;;;;;;15.60;3.50;;;;;;;29.48;52.87;99469.09;5013444;28;20362;-58
2023/07/08 08:41:47;;;;;;;15.23;3.57;;;;;;;29.41;52.19;99474.28;5008372;28;20080;-60
2023/07/08 08:44:26;;;;;;;12.90;2.67;;;;;;;29.34;51.88;99472.44;5017315;28;20056;-62
2023/07/08 08:47:04;;;;;;;14.57;3.60;;;;;;;29.29;52.21;99481.00;5007347;28;23097;-62
2023/07/08 08:49:43;;;;;;;22.50;4.43;;;;;;;28.85;52.98;99397.78;5016352;28;20091;-61
2023/07/08 08:52:15;;;;;;;11.20;2.30;;;;;;;29.23;53.21;99470.88;5008796;28;20098;-60
2023/07/08 08:54:46;;;;;;;13.33;3.10;;;;;;;29.12;52.77;99463.97;5008359;28;20468;-61
2023/07/08 08:57:41;;;;;;;17.93;4.33;;;;;;;29.15;53.78;99469.00;5022447;28;20080;-58
2023/07/08 09:00:34;;;;;;;12.83;2.63;;;;;;;29.16;54.05;99465.31;5012207;28;20060;-61
2023/07/08 09:03:21;;;;;;;11.90;2.70;;;;;;;29.16;53.63;99470.72;5010755;28;20045;-61
2023/07/08 09:05:53;;;;;;;6.57;2.27;;;;;;;28.95;53.05;99452.28;5010313;28;20057;-59
2023/07/08 09:08:50;;;;;;;9.97;2.40;;;;;;;29.04;53.40;99472.81;5019946;28;20057;-64
2023/07/08 09:11:42;;;;;;;12.87;2.70;;;;;;;28.86;53.79;99485.53;5020310;28;20056;-60
2023/07/08 09:14:21;;;;;;;10.67;3.00;;;;;;;28.76;53.99;99464.16;5010925;28;20053;-62
2023/07/08 09:17:13;;;;;;;6.97;2.80;;;;;;;28.60;54.39;99445.25;5010353;28;20111;-61
2023/07/08 09:19:49;;;;;;;11.73;2.90;;;;;;;28.73;54.36;99477.94;5006703;28;20467;-57
2023/07/08 09:22:27;;;;;;;13.67;4.20;;;;;;;28.74;55.13;99476.91;5022653;28;20091;-59
2023/07/08 09:25:05;;;;;;;8.27;4.40;;;;;;;28.75;55.68;99475.88;5010769;28;20116;-62
2023/07/08 09:27:36;;;;;;;9.15;3.38;;;;;;;28.67;56.23;99470.47;5021138;28;20144;-61
2023/07/08 09:30:14;;;;;;;6.83;2.77;;;;;;;28.81;56.51;99483.31;5009995;28;20063;-60
2023/07/08 09:32:48;;;;;;;6.68;2.40;;;;;;;28.77;56.54;99476.56;5011425;28;20044;-61
2023/07/08 09:35:25;;;;;;;8.87;3.93;;;;;;;28.68;56.40;99477.56;5019876;28;20134;-60
2023/07/08 09:38:09;;;;;;;9.63;4.43;;;;;;;28.65;56.15;99483.25;5008932;28;20037;-59
2023/07/08 09:40:42;;;;;;;7.83;3.33;;;;;;;28.52;56.47;99478.31;5014469;28;20061;-59
2023/07/08 09:43:24;;;;;;;9.47;3.40;;;;;;;28.42;55.72;99476.72;5019412;28;20138;-59
2023/07/08 09:45:59;;;;;;;5.13;2.50;;;;;;;28.17;55.85;99468.50;5010116;28;20084;-60
2023/07/08 09:48:37;;;;;;;13.23;2.87;;;;;;;28.05;56.81;99475.13;5020409;28;20045;-61
2023/07/08 09:51:08;;;;;;;17.95;4.60;;;;;;;27.89;57.35;99481.22;5009579;28;20076;-61
2023/07/08 09:53:40;;;;;;;12.93;4.50;;;;;;;27.64;57.85;99472.09;5008907;28;20552;-61
2023/07/08 09:56:12;;;;;;;13.50;6.30;;;;;;;27.50;59.03;99476.97;5021121;28;20363;-61
2023/07/08 09:58:49;;;;;;;14.27;4.97;;;;;;;27.28;60.35;99483.66;5007844;28;20056;-61
2023/07/08 10:01:26;;;;;;;16.67;4.60;;;;;;;27.01;60.94;99481.81;5021021;28;20047;-60
2023/07/08 10:04:03;;;;;;;15.88;5.18;;;;;;;26.38;62.14;99428.88;5007094;28;20059;-61
2023/07/08 10:06:36;;;;;;;13.20;5.53;;;;;;;26.55;63.08;99506.81;5020025;28;20040;-61
2023/07/08 10:09:18;;;;;;;15.17;6.23;;;;;;;26.15;64.46;99498.00;5008471;28;20144;-61
2023/07/08 10:11:54;;;;;;;14.33;5.77;;;;;;;25.81;65.84;99511.81;5009789;28;20071;-61
2023/07/08 10:14:31;;;;;;;20.53;6.47;;;;;;;25.33;67.48;99487.69;5017517;28;20394;-61
2023/07/08 10:17:03;;;;;;;10.90;5.70;;;;;;;25.14;69.20;99507.22;5008843;28;20047;-59
2023/07/08 10:19:36;;;;;;;10.63;5.67;;;;;;;24.90;70.42;99503.03;5015211;28;20043;-61
2023/07/08 10:22:24;;;;;;;19.03;5.40;;;;;;;24.67;71.67;99507.75;5010189;28;20053;-61
2023/07/08 10:25:08;;;;;;;13.10;4.40;;;;;;;24.42;73.02;99500.97;5008751;28;20095;-61
2023/07/08 10:27:48;;;;;;;22.10;5.10;;;;;;;24.31;73.99;99523.28;5007950;28;20263;-62
2023/07/08 10:30:24;;;;;;;25.23;6.97;;;;;;;24.19;74.50;99507.41;5019422;28;20049;-63
2023/07/08 10:33:20;;;;;;;17.47;5.13;;;;;;;24.08;74.84;99506.50;5009029;28;20601;-60
2023/07/08 10:36:21;;;;;;;10.77;5.30;;;;;;;23.79;76.44;99510.78;5006742;28;20047;-61
2023/07/08 10:39:14;;;;;;;19.90;6.37;;;;;;;23.63;77.23;99505.84;5009819;28;20269;-62
2023/07/08 10:41:55;;;;;;;16.87;5.20;;;;;;;23.44;78.07;99517.22;5009309;28;20045;-61
2023/07/08 10:44:34;;;;;;;19.67;6.33;;;;;;;23.05;79.20;99484.81;5020679;28;20049;-61
2023/07/08 10:47:32;;;;;;;15.20;6.67;;;;;;;23.18;79.79;99522.81;5009124;28;20048;-62
2023/07/08 10:50:23;;;;;;;19.53;6.37;;;;;;;23.08;80.20;99521.88;5009559;28;20053;-60
2023/07/08 10:53:04;;;;;;;20.70;6.87;;;;;;;22.92;80.98;99522.22;5009913;28;20060;-62
2023/07/08 10:55:46;;;;;;;23.83;7.57;;;;;;;22.79;81.24;99517.03;5018867;28;20100;-61
2023/07/08 10:58:35;;;;;;;22.00;6.63;;;;;;;22.73;81.38;99525.47;5009774;28;20051;-59
2023/07/08 11:01:16;;;;;;;13.77;5.77;;;;;;;22.65;81.65;99535.88;5006570;28;20057;-59
2023/07/08 11:04:21;;;;;;;16.03;5.80;;;;;;;22.44;82.19;99526.91;5009453;28;20085;-62
2023/07/08 11:06:57;;;;;;;31.40;8.80;;;;;;;21.84;82.60;99457.84;5004279;28;20049;-60
2023/07/08 11:09:37;;;;;;;27.47;10.73;;;;;;;22.32;83.39;99548.19;5018132;28;20040;-59
2023/07/08 11:12:19;;;;;;;16.47;8.63;;;;;;;22.22;83.85;99539.22;5006516;28;20470;-61
2023/07/08 11:14:58;;;;;;;13.63;6.10;;;;;;;22.01;84.46;99519.53;5010711;28;20049;-61
2023/07/08 11:17:36;;;;;;;16.83;6.20;;;;;;;21.89;85.26;99527.47;5015424;28;20060;-60
2023/07/08 11:20:18;;;;;;;15.77;6.10;;;;;;;21.90;85.78;99545.13;5010304;28;20144;-62
2023/07/08 11:22:54;;;;;;;15.13;7.43;;;;;;;21.71;86.15;99545.63;5005594;28;20049;-61
2023/07/08 11:25:30;;;;;;;17.03;6.90;;;;;;;21.64;86.77;99549.72;5017911;28;20148;-62
2023/07/08 11:28:07;;;;;;;24.37;9.20;;;;;;;21.51;87.48;99555.06;5008386;28;20049;-61
2023/07/08 11:30:42;;;;;;;19.20;8.77;;;;;;;21.43;88.16;99552.13;5017026;28;20052;-60
2023/07/08 11:33:15;;;;;;;19.27;9.67;;;;;;;21.31;88.59;99560.94;5020382;28;20075;-61
2023/07/08 11:35:51;;;;;;;25.23;9.40;;;;;;;21.23;89.17;99560.66;5010299;28;20271;-59
2023/07/08 11:38:23;;;;;;;20.50;8.40;;;;;;;21.17;89.82;99561.09;5018443;28;20076;-61
2023/07/08 11:40:59;;;;;;;20.83;9.47;;;;;;;21.08;89.93;99562.59;5008531;28;20291;-59
2023/07/08 11:43:39;;;;;;;24.50;9.10;;;;;;;21.00;90.54;99560.50;5017249;28;20279;-61
2023/07/08 11:46:17;;;;;;;23.43;8.53;;;;;;;20.78;90.52;99539.06;5006903;28;20268;-61
2023/07/08 11:48:51;;;;;;;16.30;7.00;;;;;;;20.88;91.14;99566.66;5008352;28;20287;-61
2023/07/08 11:51:25;;;;;;;17.07;7.33;;;;;;;20.81;91.62;99565.41;5020379;28;20276;-61
2023/07/08 11:54:09;;;;;;;19.20;6.10;;;;;;;20.16;91.83;99479.59;5007391;28;20291;-60
2023/07/08 11:56:59;;;;;;;16.13;5.70;;;;;;;20.75;92.47;99560.53;5008562;28;20303;-61
2023/07/08 11:59:34;;;;;;;17.50;6.47;;;;;;;20.26;92.75;99483.31;5019979;28;20358;-61
2023/07/08 12:02:13;;;;;;;20.63;6.33;;;;;;;20.68;92.59;99552.97;5019495;28;20773;-61
2023/07/08 12:04:59;;;;;;;;;;;;;;;20.56;93.16;99551.16;5008148;28;20308;-59